createdAt,value
2023-05-11T00:02:23.632Z,1.60
2023-05-11T00:05:26.674Z,1.50
2023-05-11T00:08:29.430Z,1.80
2023-05-11T00:11:32.287Z,1.30
2023-05-11T00:14:35.041Z,1.63
2023-05-11T00:17:37.689Z,1.60
2023-05-11T00:20:40.499Z,1.40
2023-05-11T00:23:43.304Z,1.70
2023-05-11T00:26:46.036Z,1.50
2023-05-11T00:29:49.257Z,1.38
2023-05-11T00:32:53.052Z,1.40
2023-05-11T00:35:55.760Z,1.50
2023-05-11T00:38:58.516Z,1.42
2023-05-11T00:42:01.188Z,1.60
2023-05-11T00:45:04.223Z,1.85
2023-05-11T00:48:07.212Z,1.58
2023-05-11T00:51:10.820Z,1.67
2023-05-11T00:54:15.867Z,1.50
2023-05-11T00:57:18.868Z,1.43
2023-05-11T01:00:22.063Z,1.52
2023-05-11T01:03:25.090Z,1.60
2023-05-11T01:06:55.668Z,1.50
2023-05-11T01:10:24.242Z,1.60
2023-05-11T01:13:29.329Z,1.27
2023-05-11T01:16:39.693Z,1.60
2023-05-11T01:19:58.921Z,1.55
2023-05-11T01:23:22.928Z,1.65
2023-05-11T01:26:37.416Z,1.60
2023-05-11T01:30:17.573Z,1.60
2023-05-11T01:33:31.179Z,1.50
2023-05-11T01:36:37.999Z,1.52
2023-05-11T01:39:48.959Z,1.50
2023-05-11T01:43:02.267Z,1.52
2023-05-11T01:46:06.878Z,1.43
2023-05-11T01:49:13.722Z,1.73
2023-05-11T01:52:18.459Z,1.83
2023-05-11T01:55:25.653Z,1.40
2023-05-11T01:58:30.355Z,1.60
2023-05-11T02:01:36.754Z,1.60
2023-05-11T02:04:40.952Z,1.48
2023-05-11T02:07:45.177Z,1.63
2023-05-11T02:10:50.313Z,1.67
2023-05-11T02:13:57.092Z,2.05
2023-05-11T02:17:02.244Z,1.53
2023-05-11T02:20:07.481Z,1.63
2023-05-11T02:23:10.615Z,1.45
2023-05-11T02:26:15.111Z,1.70
2023-05-11T02:29:17.958Z,1.40
2023-05-11T02:32:23.248Z,1.53
2023-05-11T02:35:29.430Z,1.77
2023-05-11T02:38:35.050Z,1.42
2023-05-11T02:41:44.643Z,1.58
2023-05-11T02:44:56.821Z,1.70
2023-05-11T02:48:04.376Z,1.67
2023-05-11T02:51:10.303Z,1.88
2023-05-11T02:54:19.886Z,1.70
2023-05-11T02:57:26.704Z,1.80
2023-05-11T03:00:31.007Z,2.00
2023-05-11T03:03:35.555Z,1.53
2023-05-11T03:06:38.474Z,1.45
2023-05-11T03:09:44.056Z,1.70
2023-05-11T03:12:47.076Z,1.92
2023-05-11T03:15:52.983Z,1.60
2023-05-11T03:18:56.450Z,1.33
2023-05-11T03:22:00.681Z,1.40
2023-05-11T03:25:05.197Z,1.98
2023-05-11T03:28:09.410Z,1.42
2023-05-11T03:31:12.887Z,1.48
2023-05-11T03:34:16.030Z,1.60
2023-05-11T03:37:21.469Z,1.85
2023-05-11T03:40:25.295Z,1.27
2023-05-11T03:43:34.582Z,1.65
2023-05-11T03:46:42.732Z,1.67
2023-05-11T03:49:46.827Z,1.70
2023-05-11T03:52:49.856Z,1.60
2023-05-11T03:55:53.137Z,1.77
2023-05-11T03:58:56.158Z,1.58
2023-05-11T04:01:59.506Z,1.40
2023-05-11T04:05:10.036Z,1.30
2023-05-11T04:08:13.267Z,1.75
2023-05-11T04:11:16.696Z,1.50
2023-05-11T04:14:20.756Z,1.55
2023-05-11T04:17:24.343Z,1.83
2023-05-11T04:20:27.279Z,1.53
2023-05-11T04:23:30.010Z,1.60
2023-05-11T04:26:34.610Z,1.58
2023-05-11T04:29:37.367Z,1.95
2023-05-11T04:32:40.055Z,1.60
2023-05-11T04:35:44.235Z,1.43
2023-05-11T04:38:51.392Z,1.33
2023-05-11T04:41:55.484Z,1.70
2023-05-11T04:44:59.657Z,1.60
2023-05-11T04:48:02.590Z,1.50
2023-05-11T04:51:06.603Z,1.70
2023-05-11T04:54:14.494Z,1.60
2023-05-11T04:57:17.253Z,1.63
2023-05-11T05:00:22.197Z,1.73
2023-05-11T05:03:25.184Z,1.75
2023-05-11T05:06:28.179Z,1.37
2023-05-11T05:09:30.933Z,1.60
2023-05-11T05:12:33.768Z,1.70
2023-05-11T05:15:36.501Z,1.63
2023-05-11T05:18:39.263Z,1.90
2023-05-11T05:21:42.068Z,1.83
2023-05-11T05:24:44.763Z,1.58
2023-05-11T05:27:47.465Z,1.40
2023-05-11T05:30:54.397Z,1.40
2023-05-11T05:33:57.611Z,1.63
2023-05-11T05:37:00.876Z,1.77
2023-05-11T05:40:05.118Z,1.50
2023-05-11T05:43:11.431Z,1.40
2023-05-11T05:46:14.251Z,1.65
2023-05-11T05:49:17.496Z,1.63
2023-05-11T05:52:20.473Z,1.60
2023-05-11T05:55:24.881Z,1.45
2023-05-11T05:58:28.157Z,1.90
2023-05-11T06:01:31.825Z,1.70
2023-05-11T06:04:34.531Z,1.40
2023-05-11T06:07:37.368Z,1.60
2023-05-11T06:10:41.161Z,1.52
2023-05-11T06:13:45.711Z,1.85
2023-05-11T06:16:49.052Z,1.75
2023-05-11T06:19:52.499Z,1.77
2023-05-11T06:22:59.492Z,2.00
2023-05-11T06:26:02.374Z,1.70
2023-05-11T06:29:08.188Z,1.75
2023-05-11T06:32:11.907Z,1.80
2023-05-11T06:35:14.744Z,2.40
2023-05-11T06:38:20.876Z,2.20
2023-05-11T06:41:23.712Z,2.20
2023-05-11T06:44:30.971Z,2.17
2023-05-11T06:47:34.031Z,2.13
2023-05-11T06:50:36.830Z,2.80
2023-05-11T06:53:39.641Z,2.03
2023-05-11T06:56:42.400Z,2.47
2023-05-11T06:59:45.122Z,2.70
2023-05-11T07:02:47.864Z,2.92
2023-05-11T07:05:50.562Z,2.63
2023-05-11T07:08:53.264Z,2.53
2023-05-11T07:11:56.326Z,2.60
2023-05-11T07:15:01.958Z,2.53
2023-05-11T07:18:04.920Z,2.50
2023-05-11T07:21:07.849Z,2.42
2023-05-11T07:24:10.648Z,2.27
2023-05-11T07:27:13.385Z,2.50
2023-05-11T07:30:18.506Z,2.25
2023-05-11T07:33:21.448Z,2.42
2023-05-11T07:36:24.299Z,2.60
2023-05-11T07:39:27.043Z,2.50
2023-05-11T07:42:30.370Z,3.00
2023-05-11T07:45:33.168Z,2.78
2023-05-11T07:48:36.069Z,2.80
2023-05-11T07:51:38.959Z,2.88
2023-05-11T07:54:42.419Z,2.50
2023-05-11T07:57:45.563Z,2.53
2023-05-11T08:00:48.429Z,2.95
2023-05-11T08:03:52.851Z,2.92
2023-05-11T08:06:56.710Z,3.28
2023-05-11T08:09:59.505Z,2.67
2023-05-11T08:13:02.636Z,2.90
2023-05-11T08:16:06.052Z,2.97
2023-05-11T08:19:09.007Z,2.90
2023-05-11T08:22:11.908Z,2.70
2023-05-11T08:25:14.770Z,2.80
2023-05-11T08:28:18.470Z,2.80
2023-05-11T08:31:22.103Z,2.53
2023-05-11T08:34:25.350Z,2.60
2023-05-11T08:37:28.358Z,2.80
2023-05-11T08:40:32.009Z,2.63
2023-05-11T08:43:36.379Z,2.90
2023-05-11T08:46:42.105Z,3.15
2023-05-11T08:49:45.225Z,2.83
2023-05-11T08:52:48.566Z,3.15
2023-05-11T08:55:52.014Z,3.33
2023-05-11T08:58:58.785Z,3.33
2023-05-11T09:02:03.865Z,3.28
2023-05-11T09:05:07.898Z,3.08
2023-05-11T09:08:13.493Z,2.95
2023-05-11T09:11:16.862Z,3.27
2023-05-11T09:14:19.587Z,3.00
2023-05-11T09:17:25.921Z,3.10
2023-05-11T09:20:31.791Z,2.88
2023-05-11T09:23:34.770Z,3.17
2023-05-11T09:26:37.561Z,3.10
2023-05-11T09:29:40.380Z,3.50
2023-05-11T09:33:00.593Z,2.85
2023-05-11T09:36:03.673Z,2.95
2023-05-11T09:39:06.468Z,3.42
2023-05-11T09:42:13.945Z,2.80
2023-05-11T09:45:36.145Z,3.33
2023-05-11T09:48:39.410Z,3.42
2023-05-11T09:51:42.230Z,3.05
2023-05-11T09:54:47.076Z,3.05
2023-05-11T09:58:00.050Z,3.30
2023-05-11T10:01:02.790Z,3.58
2023-05-11T10:04:22.107Z,3.60
2023-05-11T10:07:33.907Z,3.05
2023-05-11T10:10:36.958Z,3.33
2023-05-11T10:13:40.633Z,3.00
2023-05-11T10:16:46.626Z,3.00
2023-05-11T10:19:50.801Z,3.55
2023-05-11T10:22:55.503Z,3.65
2023-05-11T10:25:58.387Z,3.35
2023-05-11T10:29:01.842Z,3.57
2023-05-11T10:32:07.324Z,3.20
2023-05-11T10:35:10.397Z,3.30
2023-05-11T10:38:15.178Z,3.58
2023-05-11T10:41:49.584Z,3.50
2023-05-11T10:45:14.355Z,3.50
2023-05-11T10:48:39.723Z,3.88
2023-05-11T10:52:05.343Z,3.70
2023-05-11T10:55:21.994Z,3.05
2023-05-11T10:58:49.826Z,3.60
2023-05-11T11:01:54.901Z,3.47
2023-05-11T11:04:59.014Z,3.22
2023-05-11T11:08:05.986Z,3.28
2023-05-11T11:11:32.337Z,3.30
2023-05-11T11:15:00.862Z,3.58
2023-05-11T11:18:35.980Z,3.73
2023-05-11T11:21:42.870Z,3.30
2023-05-11T11:24:47.005Z,3.80
2023-05-11T11:27:49.675Z,3.80
2023-05-11T11:31:23.941Z,3.67
2023-05-11T11:34:29.434Z,4.07
2023-05-11T11:38:11.496Z,3.83
2023-05-11T11:41:29.253Z,3.95
2023-05-11T11:44:35.314Z,3.30
2023-05-11T11:47:38.140Z,4.35
2023-05-11T11:50:46.034Z,3.90
2023-05-11T11:54:09.579Z,3.75
2023-05-11T11:57:35.180Z,4.03
2023-05-11T12:00:39.159Z,4.00
2023-05-11T12:03:44.927Z,3.95
2023-05-11T12:06:56.748Z,4.10
2023-05-11T12:10:04.109Z,3.78
2023-05-11T12:13:09.709Z,3.85
2023-05-11T12:16:17.591Z,4.13
2023-05-11T12:19:24.673Z,3.83
2023-05-11T12:22:27.497Z,3.80
2023-05-11T12:25:30.514Z,3.53
2023-05-11T12:28:36.890Z,4.72
2023-05-11T12:31:45.681Z,3.78
2023-05-11T12:34:59.302Z,3.55
2023-05-11T12:38:05.748Z,3.40
2023-05-11T12:41:08.650Z,3.75
2023-05-11T12:44:11.915Z,3.67
2023-05-11T12:47:15.906Z,3.30
2023-05-11T12:50:21.244Z,3.67
2023-05-11T12:53:23.969Z,3.40
2023-05-11T12:56:26.633Z,3.33
2023-05-11T12:59:37.708Z,3.53
2023-05-11T13:02:54.802Z,3.72
2023-05-11T13:06:11.684Z,5.28
2023-05-11T13:09:23.044Z,5.00
2023-05-11T13:12:26.305Z,5.45
2023-05-11T13:15:29.398Z,6.88
2023-05-11T13:18:32.169Z,4.80
2023-05-11T13:21:34.936Z,12.52
2023-05-11T13:24:37.721Z,16.43
2023-05-11T13:27:47.124Z,10.20
2023-05-11T13:30:53.943Z,10.30
2023-05-11T13:33:56.791Z,9.10
2023-05-11T13:36:59.725Z,8.15
2023-05-11T13:40:02.537Z,7.80
2023-05-11T13:43:05.311Z,7.53
2023-05-11T13:46:08.035Z,8.82
2023-05-11T13:49:11.745Z,11.05
2023-05-11T13:52:15.343Z,7.70
2023-05-11T13:55:25.027Z,7.40
2023-05-11T13:58:30.084Z,7.55
2023-05-11T14:01:32.940Z,10.35
2023-05-11T14:04:35.674Z,10.57
2023-05-11T14:07:47.117Z,8.75
2023-05-11T14:10:51.285Z,7.60
2023-05-11T14:13:54.219Z,7.32
2023-05-11T14:16:57.144Z,7.88
2023-05-11T14:19:59.798Z,7.18
2023-05-11T14:23:02.436Z,7.18
2023-05-11T14:26:05.699Z,6.47
2023-05-11T14:29:08.576Z,6.47
2023-05-11T14:32:12.216Z,6.15
2023-05-11T14:35:15.089Z,5.72
2023-05-11T14:38:17.935Z,5.60
2023-05-11T14:41:21.469Z,5.53
2023-05-11T14:44:24.755Z,5.43
2023-05-11T14:47:27.689Z,5.20
2023-05-11T14:50:31.201Z,5.63
2023-05-11T14:53:35.977Z,5.03
2023-05-11T14:56:39.676Z,4.63
2023-05-11T14:59:55.220Z,4.97
2023-05-11T15:03:01.610Z,4.80
2023-05-11T15:06:04.505Z,5.43
2023-05-11T15:09:07.255Z,4.47
2023-05-11T15:12:12.606Z,4.87
2023-05-11T15:15:15.482Z,4.32
2023-05-11T15:18:18.427Z,5.68
2023-05-11T15:21:21.603Z,4.75
2023-05-11T15:24:24.494Z,4.80
2023-05-11T15:27:27.345Z,4.30
2023-05-11T15:30:32.534Z,4.40
2023-05-11T15:33:35.588Z,4.47
2023-05-11T15:36:38.270Z,4.93
2023-05-11T15:39:41.113Z,5.30
2023-05-11T15:42:43.812Z,4.90
2023-05-11T15:45:46.589Z,4.80
2023-05-11T15:48:49.278Z,5.07
2023-05-11T15:51:52.011Z,4.80
2023-05-11T15:54:54.833Z,4.40
2023-05-11T15:57:57.967Z,4.80
2023-05-11T16:01:03.251Z,4.30
2023-05-11T16:04:06.729Z,4.40
2023-05-11T16:07:09.385Z,4.40
2023-05-11T16:10:12.096Z,4.55
2023-05-11T16:13:14.867Z,4.33
2023-05-11T16:16:17.676Z,4.22
2023-05-11T16:19:20.348Z,4.03
2023-05-11T16:22:23.064Z,3.72
2023-05-11T16:25:25.847Z,4.30
2023-05-11T16:28:28.545Z,4.57
2023-05-11T16:31:31.242Z,4.68
2023-05-11T16:34:35.302Z,4.50
2023-05-11T16:37:38.020Z,4.25
2023-05-11T16:40:40.723Z,4.05
2023-05-11T16:43:44.243Z,4.27
2023-05-11T16:46:47.878Z,4.20
2023-05-11T16:49:53.687Z,4.40
2023-05-11T16:52:57.275Z,4.40
2023-05-11T16:55:59.956Z,4.68
2023-05-11T16:59:02.889Z,4.23
2023-05-11T17:02:07.524Z,4.32
2023-05-11T17:05:11.844Z,4.40
2023-05-11T17:08:14.610Z,4.35
2023-05-11T17:11:17.350Z,4.68
2023-05-11T17:14:23.040Z,4.20
2023-05-11T17:17:29.588Z,4.60
2023-05-11T17:20:32.568Z,4.18
2023-05-11T17:23:36.085Z,4.03
2023-05-11T17:26:47.177Z,4.18
2023-05-11T17:29:50.806Z,3.73
2023-05-11T17:32:57.865Z,4.00
2023-05-11T17:36:02.406Z,3.85
2023-05-11T17:39:05.382Z,4.20
2023-05-11T17:42:12.123Z,4.20
2023-05-11T17:45:15.033Z,4.27
2023-05-11T17:48:18.058Z,3.53
2023-05-11T17:51:20.797Z,3.92
2023-05-11T17:54:23.875Z,3.88
2023-05-11T17:57:26.697Z,4.35
2023-05-11T18:00:29.476Z,4.03
2023-05-11T18:03:32.232Z,4.18
2023-05-11T18:06:35.251Z,3.83
2023-05-11T18:09:37.967Z,4.18
2023-05-11T18:12:41.273Z,4.03
2023-05-11T18:15:44.112Z,4.00
2023-05-11T18:18:46.962Z,3.75
2023-05-11T18:21:51.402Z,3.45
2023-05-11T18:24:55.190Z,3.67
2023-05-11T18:28:02.229Z,3.88
2023-05-11T18:31:05.847Z,4.30
2023-05-11T18:34:09.481Z,4.07
2023-05-11T18:37:13.019Z,4.50
2023-05-11T18:40:16.366Z,3.92
2023-05-11T18:43:32.255Z,3.92
2023-05-11T18:46:36.360Z,4.17
2023-05-11T18:49:41.344Z,3.78
2023-05-11T18:52:45.760Z,4.10
2023-05-11T18:55:53.699Z,3.60
2023-05-11T18:58:59.893Z,3.70
2023-05-11T19:02:04.105Z,3.53
2023-05-11T19:08:30.573Z,4.10
2023-05-11T19:11:35.556Z,4.10
2023-05-11T19:14:39.412Z,3.75
2023-05-11T19:17:43.534Z,3.40
2023-05-11T19:20:47.588Z,3.55
2023-05-11T19:23:51.117Z,4.22
2023-05-11T19:27:06.629Z,3.80
2023-05-11T19:30:12.356Z,3.53
2023-05-11T19:33:16.371Z,3.90
2023-05-11T19:36:20.087Z,3.20
2023-05-11T19:39:24.762Z,4.03
2023-05-11T19:42:35.985Z,3.75
2023-05-11T19:45:45.446Z,3.33
2023-05-11T19:48:52.309Z,3.50
2023-05-11T19:51:55.296Z,3.30
2023-05-11T19:54:58.043Z,3.58
2023-05-11T19:58:00.811Z,3.47
2023-05-11T20:01:03.638Z,3.25
2023-05-11T20:04:06.445Z,3.30
2023-05-11T20:07:09.383Z,3.60
2023-05-11T20:10:12.328Z,3.88
2023-05-11T20:13:15.049Z,3.47
2023-05-11T20:16:19.469Z,3.20
2023-05-11T20:19:22.422Z,3.70
2023-05-11T20:22:25.158Z,3.20
2023-05-11T20:25:27.836Z,3.17
2023-05-11T20:28:30.655Z,3.00
2023-05-11T20:31:34.206Z,3.90
2023-05-11T20:34:37.081Z,3.80
2023-05-11T20:37:39.914Z,3.08
2023-05-11T20:40:42.586Z,3.92
2023-05-11T20:43:45.413Z,3.25
2023-05-11T20:46:52.640Z,3.65
2023-05-11T20:49:56.566Z,2.83
2023-05-11T20:52:59.396Z,3.22
2023-05-11T20:56:03.313Z,3.10
2023-05-11T20:59:06.456Z,3.50
2023-05-11T21:02:09.106Z,2.95
2023-05-11T21:05:12.034Z,2.80
2023-05-11T21:08:15.392Z,2.92
2023-05-11T21:11:18.271Z,3.28
2023-05-11T21:14:21.079Z,3.10
2023-05-11T21:17:23.852Z,3.28
2023-05-11T21:20:26.563Z,3.10
2023-05-11T21:23:29.891Z,2.83
2023-05-11T21:26:36.963Z,3.35
2023-05-11T21:29:45.827Z,3.00
2023-05-11T21:32:50.806Z,3.03
2023-05-11T21:35:54.082Z,2.80
2023-05-11T21:38:56.755Z,3.03
2023-05-11T21:41:59.572Z,2.88
2023-05-11T21:45:03.513Z,3.00
2023-05-11T21:48:06.491Z,2.80
2023-05-11T21:51:09.343Z,3.00
2023-05-11T21:54:12.108Z,3.13
2023-05-11T21:57:14.808Z,3.22
2023-05-11T22:00:19.377Z,2.72
2023-05-11T22:03:22.513Z,2.70
2023-05-11T22:06:28.239Z,2.63
2023-05-11T22:09:33.113Z,2.72
2023-05-11T22:12:36.458Z,2.70
2023-05-11T22:15:39.167Z,3.05
2023-05-11T22:18:41.974Z,3.10
2023-05-11T22:21:44.662Z,2.70
2023-05-11T22:24:47.413Z,2.70
2023-05-11T22:27:50.356Z,2.88
2023-05-11T22:30:53.068Z,3.00
2023-05-11T22:33:56.046Z,2.78
2023-05-11T22:37:00.289Z,2.63
2023-05-11T22:40:03.518Z,2.80
2023-05-11T22:43:06.242Z,2.63
2023-05-11T22:46:08.929Z,2.40
2023-05-11T22:49:12.381Z,2.80
2023-05-11T22:52:15.068Z,2.77
2023-05-11T22:55:18.085Z,2.40
2023-05-11T22:58:20.729Z,2.65
2023-05-11T23:01:23.492Z,2.33
2023-05-11T23:04:29.476Z,2.78
2023-05-11T23:07:32.306Z,2.40
2023-05-11T23:10:34.998Z,2.60
2023-05-11T23:13:38.337Z,2.30
2023-05-11T23:16:41.032Z,2.15
2023-05-11T23:19:43.701Z,2.42
2023-05-11T23:22:46.429Z,2.47
2023-05-11T23:25:49.237Z,2.38
2023-05-11T23:28:51.998Z,2.58
2023-05-11T23:31:55.920Z,2.58
2023-05-11T23:34:58.664Z,2.70
2023-05-11T23:38:01.493Z,2.70
2023-05-11T23:41:04.310Z,2.60
2023-05-11T23:44:07.171Z,2.72
2023-05-11T23:47:09.950Z,2.65
2023-05-11T23:50:13.292Z,2.83
2023-05-11T23:53:15.948Z,2.30
2023-05-11T23:56:18.603Z,2.47
2023-05-11T23:59:21.262Z,2.40
